sensor_id;sensor_type;location;lat;lon;timestamp;pressure;altitude;pressure_sealevel;temperature;humidity
38452;BME280;24231;52.514;13.438;2023-03-01T00:03:04;102657.01;;;5.26;40.56
38452;BME280;24231;52.514;13.438;2023-03-01T00:05:31;102654.12;;;5.07;40.16
38452;BME280;24231;52.514;13.438;2023-03-01T00:07:58;102648.27;;;5.55;39.51
38452;BME280;24231;52.514;13.438;2023-03-01T00:10:26;102645.52;;;5.33;40.17
38452;BME280;24231;52.514;13.438;2023-03-01T00:12:53;102646.00;;;3.43;44.27
38452;BME280;24231;52.514;13.438;2023-03-01T00:15:20;102651.18;;;2.85;45.89
38452;BME280;24231;52.514;13.438;2023-03-01T00:17:47;102641.63;;;4.05;43.29
38452;BME280;24231;52.514;13.438;2023-03-01T00:20:14;102639.54;;;4.30;42.55
38452;BME280;24231;52.514;13.438;2023-03-01T00:22:41;102634.58;;;4.39;42.67
38452;BME280;24231;52.514;13.438;2023-03-01T00:25:08;102630.05;;;4.80;41.83
38452;BME280;24231;52.514;13.438;2023-03-01T00:27:35;102625.70;;;5.29;40.85
38452;BME280;24231;52.514;13.438;2023-03-01T00:30:03;102623.53;;;5.62;40.49
38452;BME280;24231;52.514;13.438;2023-03-01T00:32:30;102624.71;;;5.04;41.18
38452;BME280;24231;52.514;13.438;2023-03-01T00:34:58;102626.43;;;5.04;41.30
38452;BME280;24231;52.514;13.438;2023-03-01T00:37:25;102631.42;;;5.46;41.91
38452;BME280;24231;52.514;13.438;2023-03-01T00:39:52;102631.50;;;5.04;41.94
38452;BME280;24231;52.514;13.438;2023-03-01T00:42:19;102628.30;;;5.25;40.88
38452;BME280;24231;52.514;13.438;2023-03-01T00:44:46;102625.39;;;3.82;43.54
38452;BME280;24231;52.514;13.438;2023-03-01T00:47:13;102622.48;;;4.73;41.66
38452;BME280;24231;52.514;13.438;2023-03-01T00:49:40;102619.14;;;5.35;40.25
38452;BME280;24231;52.514;13.438;2023-03-01T00:52:07;102621.19;;;4.39;42.09
38452;BME280;24231;52.514;13.438;2023-03-01T00:54:34;102624.82;;;3.84;43.16
38452;BME280;24231;52.514;13.438;2023-03-01T00:57:01;102623.83;;;4.07;42.70
38452;BME280;24231;52.514;13.438;2023-03-01T00:59:28;102624.96;;;3.89;43.16
38452;BME280;24231;52.514;13.438;2023-03-01T01:01:55;102618.49;;;4.17;42.75
38452;BME280;24231;52.514;13.438;2023-03-01T01:04:22;102612.20;;;5.20;40.85
38452;BME280;24231;52.514;13.438;2023-03-01T01:06:49;102611.20;;;4.97;41.34
38452;BME280;24231;52.514;13.438;2023-03-01T01:09:17;102609.16;;;4.75;41.39
38452;BME280;24231;52.514;13.438;2023-03-01T01:11:48;102605.89;;;4.38;41.90
38452;BME280;24231;52.514;13.438;2023-03-01T01:14:15;102602.62;;;4.21;42.44
38452;BME280;24231;52.514;13.438;2023-03-01T01:16:43;102598.26;;;4.90;41.54
38452;BME280;24231;52.514;13.438;2023-03-01T01:19:11;102597.63;;;4.85;41.37
38452;BME280;24231;52.514;13.438;2023-03-01T01:21:39;102598.12;;;4.80;41.27
38452;BME280;24231;52.514;13.438;2023-03-01T01:24:07;102600.48;;;5.08;41.30
38452;BME280;24231;52.514;13.438;2023-03-01T01:26:34;102592.97;;;4.99;41.33
38452;BME280;24231;52.514;13.438;2023-03-01T01:29:03;102589.34;;;5.02;41.41
38452;BME280;24231;52.514;13.438;2023-03-01T01:31:32;102581.60;;;4.55;42.37
38452;BME280;24231;52.514;13.438;2023-03-01T01:34:01;102572.39;;;4.83;41.90
38452;BME280;24231;52.514;13.438;2023-03-01T01:36:29;102569.07;;;5.14;41.21
38452;BME280;24231;52.514;13.438;2023-03-01T01:38:56;102567.10;;;4.81;41.84
38452;BME280;24231;52.514;13.438;2023-03-01T01:41:25;102567.58;;;4.55;42.18
38452;BME280;24231;52.514;13.438;2023-03-01T01:44:12;102568.73;;;5.00;41.50
38452;BME280;24231;52.514;13.438;2023-03-01T01:46:41;102567.83;;;4.65;41.87
38452;BME280;24231;52.514;13.438;2023-03-01T01:49:22;102567.11;;;4.82;41.91
38452;BME280;24231;52.514;13.438;2023-03-01T01:51:53;102566.78;;;5.00;41.61
38452;BME280;24231;52.514;13.438;2023-03-01T01:54:25;102568.34;;;4.81;41.76
38452;BME280;24231;52.514;13.438;2023-03-01T01:56:57;102568.17;;;4.39;42.52
38452;BME280;24231;52.514;13.438;2023-03-01T01:59:28;102572.32;;;4.35;42.91
38452;BME280;24231;52.514;13.438;2023-03-01T02:02:00;102575.12;;;4.53;42.58
38452;BME280;24231;52.514;13.438;2023-03-01T02:04:28;102577.87;;;4.32;42.79
38452;BME280;24231;52.514;13.438;2023-03-01T02:06:59;102578.95;;;4.56;42.48
38452;BME280;24231;52.514;13.438;2023-03-01T02:09:28;102585.17;;;4.39;42.32
38452;BME280;24231;52.514;13.438;2023-03-01T02:11:57;102588.40;;;4.04;43.09
38452;BME280;24231;52.514;13.438;2023-03-01T02:14:25;102591.17;;;4.42;42.32
38452;BME280;24231;52.514;13.438;2023-03-01T02:16:52;102591.42;;;4.24;42.52
38452;BME280;24231;52.514;13.438;2023-03-01T02:19:30;102588.79;;;4.72;41.69
38452;BME280;24231;52.514;13.438;2023-03-01T02:22:05;102588.94;;;4.24;42.50
38452;BME280;24231;52.514;13.438;2023-03-01T02:24:45;102583.46;;;3.99;43.07
38452;BME280;24231;52.514;13.438;2023-03-01T02:27:15;102584.49;;;4.15;42.74
38452;BME280;24231;52.514;13.438;2023-03-01T02:29:44;102582.39;;;4.54;42.24
38452;BME280;24231;52.514;13.438;2023-03-01T02:32:12;102584.04;;;4.45;41.99
38452;BME280;24231;52.514;13.438;2023-03-01T02:34:41;102586.81;;;3.98;42.89
38452;BME280;24231;52.514;13.438;2023-03-01T02:37:13;102588.10;;;3.97;43.11
38452;BME280;24231;52.514;13.438;2023-03-01T02:39:44;102588.33;;;4.33;42.52
38452;BME280;24231;52.514;13.438;2023-03-01T02:42:18;102584.37;;;4.38;42.41
38452;BME280;24231;52.514;13.438;2023-03-01T02:44:48;102582.61;;;4.55;42.24
38452;BME280;24231;52.514;13.438;2023-03-01T02:47:16;102578.93;;;4.58;42.00
38452;BME280;24231;52.514;13.438;2023-03-01T02:49:53;102580.74;;;4.37;42.23
38452;BME280;24231;52.514;13.438;2023-03-01T02:52:32;102581.19;;;3.82;43.27
38452;BME280;24231;52.514;13.438;2023-03-01T02:55:03;102572.17;;;4.55;42.48
38452;BME280;24231;52.514;13.438;2023-03-01T02:57:32;102569.29;;;4.64;41.89
38452;BME280;24231;52.514;13.438;2023-03-01T03:00:03;102568.19;;;4.47;42.36
38452;BME280;24231;52.514;13.438;2023-03-01T03:02:31;102561.48;;;4.64;42.29
38452;BME280;24231;52.514;13.438;2023-03-01T03:04:59;102555.87;;;4.49;42.39
38452;BME280;24231;52.514;13.438;2023-03-01T03:07:25;102557.96;;;3.74;43.72
38452;BME280;24231;52.514;13.438;2023-03-01T03:09:52;102559.51;;;4.11;43.43
38452;BME280;24231;52.514;13.438;2023-03-01T03:12:19;102558.70;;;4.58;42.50
38452;BME280;24231;52.514;13.438;2023-03-01T03:14:47;102557.23;;;4.60;42.45
38452;BME280;24231;52.514;13.438;2023-03-01T03:17:14;102558.90;;;4.71;42.92
38452;BME280;24231;52.514;13.438;2023-03-01T03:19:41;102569.52;;;2.77;46.07
38452;BME280;24231;52.514;13.438;2023-03-01T03:22:08;102564.53;;;3.51;44.93
38452;BME280;24231;52.514;13.438;2023-03-01T03:24:36;102563.57;;;3.93;44.69
38452;BME280;24231;52.514;13.438;2023-03-01T03:27:04;102567.40;;;2.72;46.58
38452;BME280;24231;52.514;13.438;2023-03-01T03:29:31;102562.07;;;1.78;48.74
38452;BME280;24231;52.514;13.438;2023-03-01T03:31:59;102559.19;;;2.90;46.87
38452;BME280;24231;52.514;13.438;2023-03-01T03:34:26;102546.81;;;3.70;44.89
38452;BME280;24231;52.514;13.438;2023-03-01T03:36:53;102545.07;;;4.23;43.56
38452;BME280;24231;52.514;13.438;2023-03-01T03:39:20;102541.91;;;4.29;43.46
38452;BME280;24231;52.514;13.438;2023-03-01T03:41:48;102539.65;;;4.67;42.86
38452;BME280;24231;52.514;13.438;2023-03-01T03:44:14;102537.69;;;4.62;42.77
38452;BME280;24231;52.514;13.438;2023-03-01T03:46:41;102534.72;;;4.44;42.98
38452;BME280;24231;52.514;13.438;2023-03-01T03:49:08;102530.79;;;4.46;42.87
38452;BME280;24231;52.514;13.438;2023-03-01T03:51:35;102531.95;;;4.08;44.33
38452;BME280;24231;52.514;13.438;2023-03-01T03:54:03;102526.27;;;3.76;44.81
38452;BME280;24231;52.514;13.438;2023-03-01T03:56:31;102520.49;;;3.34;45.27
38452;BME280;24231;52.514;13.438;2023-03-01T03:58:58;102521.41;;;4.33;44.42
38452;BME280;24231;52.514;13.438;2023-03-01T04:01:26;102520.19;;;4.38;44.26
38452;BME280;24231;52.514;13.438;2023-03-01T04:03:53;102521.63;;;4.36;44.63
38452;BME280;24231;52.514;13.438;2023-03-01T04:06:21;102523.23;;;4.18;44.68
38452;BME280;24231;52.514;13.438;2023-03-01T04:08:48;102525.00;;;3.80;45.61
38452;BME280;24231;52.514;13.438;2023-03-01T04:11:15;102522.12;;;3.84;45.47
38452;BME280;24231;52.514;13.438;2023-03-01T04:13:42;102519.02;;;4.17;44.94
38452;BME280;24231;52.514;13.438;2023-03-01T04:16:10;102523.45;;;4.38;44.44
38452;BME280;24231;52.514;13.438;2023-03-01T04:18:37;102528.12;;;4.19;44.45
38452;BME280;24231;52.514;13.438;2023-03-01T04:21:04;102527.72;;;4.01;44.98
38452;BME280;24231;52.514;13.438;2023-03-01T04:23:32;102530.48;;;3.88;45.78
38452;BME280;24231;52.514;13.438;2023-03-01T04:25:59;102528.41;;;4.06;46.04
38452;BME280;24231;52.514;13.438;2023-03-01T04:28:28;102528.68;;;4.21;45.53
38452;BME280;24231;52.514;13.438;2023-03-01T04:30:57;102523.25;;;4.24;45.27
38452;BME280;24231;52.514;13.438;2023-03-01T04:33:25;102518.61;;;4.38;45.15
38452;BME280;24231;52.514;13.438;2023-03-01T04:35:53;102517.81;;;4.07;45.93
38452;BME280;24231;52.514;13.438;2023-03-01T04:38:20;102517.07;;;4.24;45.44
38452;BME280;24231;52.514;13.438;2023-03-01T04:40:47;102520.18;;;4.06;45.48
38452;BME280;24231;52.514;13.438;2023-03-01T04:43:15;102520.82;;;3.94;45.85
38452;BME280;24231;52.514;13.438;2023-03-01T04:45:42;102519.18;;;4.03;45.59
38452;BME280;24231;52.514;13.438;2023-03-01T04:48:09;102516.24;;;3.54;46.48
38452;BME280;24231;52.514;13.438;2023-03-01T04:50:37;102517.66;;;3.44;46.90
38452;BME280;24231;52.514;13.438;2023-03-01T04:53:04;102513.26;;;3.25;47.42
38452;BME280;24231;52.514;13.438;2023-03-01T04:55:31;102511.34;;;3.57;47.06
38452;BME280;24231;52.514;13.438;2023-03-01T04:58:00;102517.37;;;3.70;46.32
38452;BME280;24231;52.514;13.438;2023-03-01T05:00:27;102517.26;;;3.72;46.00
38452;BME280;24231;52.514;13.438;2023-03-01T05:02:56;102515.57;;;3.37;46.87
38452;BME280;24231;52.514;13.438;2023-03-01T05:05:26;102512.75;;;3.46;47.00
38452;BME280;24231;52.514;13.438;2023-03-01T05:07:55;102513.48;;;3.64;46.90
38452;BME280;24231;52.514;13.438;2023-03-01T05:10:23;102515.54;;;3.69;46.09
38452;BME280;24231;52.514;13.438;2023-03-01T05:12:51;102514.80;;;3.97;45.84
38452;BME280;24231;52.514;13.438;2023-03-01T05:15:18;102508.81;;;4.36;44.82
38452;BME280;24231;52.514;13.438;2023-03-01T05:17:46;102510.39;;;3.87;45.90
38452;BME280;24231;52.514;13.438;2023-03-01T05:20:13;102511.94;;;3.99;45.55
38452;BME280;24231;52.514;13.438;2023-03-01T05:22:40;102510.69;;;3.99;45.49
38452;BME280;24231;52.514;13.438;2023-03-01T05:25:07;102515.17;;;4.10;45.65
38452;BME280;24231;52.514;13.438;2023-03-01T05:27:35;102513.30;;;4.32;45.14
38452;BME280;24231;52.514;13.438;2023-03-01T05:30:02;102510.77;;;3.74;46.65
38452;BME280;24231;52.514;13.438;2023-03-01T05:32:29;102509.16;;;3.27;47.83
38452;BME280;24231;52.514;13.438;2023-03-01T05:34:57;102512.85;;;3.02;48.60
38452;BME280;24231;52.514;13.438;2023-03-01T05:37:24;102510.21;;;2.93;48.19
38452;BME280;24231;52.514;13.438;2023-03-01T05:39:52;102511.48;;;2.82;48.56
38452;BME280;24231;52.514;13.438;2023-03-01T05:42:19;102509.81;;;2.34;49.91
38452;BME280;24231;52.514;13.438;2023-03-01T05:44:46;102503.25;;;2.86;48.66
38452;BME280;24231;52.514;13.438;2023-03-01T05:47:13;102499.26;;;3.05;48.11
38452;BME280;24231;52.514;13.438;2023-03-01T05:49:40;102502.47;;;2.46;49.76
38452;BME280;24231;52.514;13.438;2023-03-01T05:52:08;102496.78;;;2.99;48.30
38452;BME280;24231;52.514;13.438;2023-03-01T05:54:36;102497.81;;;2.97;48.47
38452;BME280;24231;52.514;13.438;2023-03-01T05:57:03;102502.76;;;2.80;48.55
38452;BME280;24231;52.514;13.438;2023-03-01T05:59:30;102499.31;;;3.30;47.81
38452;BME280;24231;52.514;13.438;2023-03-01T06:01:57;102501.53;;;3.60;46.77
38452;BME280;24231;52.514;13.438;2023-03-01T06:04:24;102500.76;;;3.82;46.47
38452;BME280;24231;52.514;13.438;2023-03-01T06:06:52;102501.99;;;3.59;47.11
38452;BME280;24231;52.514;13.438;2023-03-01T06:09:20;102506.71;;;3.96;46.50
38452;BME280;24231;52.514;13.438;2023-03-01T06:11:47;102508.26;;;4.31;45.73
38452;BME280;24231;52.514;13.438;2023-03-01T06:14:14;102503.66;;;4.39;45.60
38452;BME280;24231;52.514;13.438;2023-03-01T06:16:41;102503.76;;;3.85;46.53
38452;BME280;24231;52.514;13.438;2023-03-01T06:19:09;102506.44;;;4.08;45.81
38452;BME280;24231;52.514;13.438;2023-03-01T06:21:35;102501.35;;;4.27;45.30
38452;BME280;24231;52.514;13.438;2023-03-01T06:24:04;102497.99;;;3.99;45.88
38452;BME280;24231;52.514;13.438;2023-03-01T06:26:31;102500.66;;;4.41;45.62
38452;BME280;24231;52.514;13.438;2023-03-01T06:28:57;102502.95;;;4.63;44.74
38452;BME280;24231;52.514;13.438;2023-03-01T06:31:24;102503.15;;;4.79;44.60
38452;BME280;24231;52.514;13.438;2023-03-01T06:33:51;102502.14;;;4.69;44.60
38452;BME280;24231;52.514;13.438;2023-03-01T06:36:19;102504.03;;;4.90;44.61
38452;BME280;24231;52.514;13.438;2023-03-01T06:38:46;102503.70;;;4.89;44.43
38452;BME280;24231;52.514;13.438;2023-03-01T06:41:14;102507.14;;;5.04;44.37
38452;BME280;24231;52.514;13.438;2023-03-01T06:43:41;102510.09;;;4.89;44.37
38452;BME280;24231;52.514;13.438;2023-03-01T06:46:08;102518.19;;;4.50;46.00
38452;BME280;24231;52.514;13.438;2023-03-01T06:48:36;102512.10;;;5.18;44.43
38452;BME280;24231;52.514;13.438;2023-03-01T06:51:03;102512.47;;;5.17;44.32
38452;BME280;24231;52.514;13.438;2023-03-01T06:53:30;102515.09;;;5.08;44.57
38452;BME280;24231;52.514;13.438;2023-03-01T06:55:59;102519.05;;;4.92;45.04
38452;BME280;24231;52.514;13.438;2023-03-01T06:58:31;102512.35;;;5.16;44.64
38452;BME280;24231;52.514;13.438;2023-03-01T07:00:59;102514.25;;;4.88;44.80
38452;BME280;24231;52.514;13.438;2023-03-01T07:03:26;102511.74;;;5.43;44.49
38452;BME280;24231;52.514;13.438;2023-03-01T07:05:53;102514.89;;;5.42;44.84
38452;BME280;24231;52.514;13.438;2023-03-01T07:08:20;102518.95;;;5.42;45.14
38452;BME280;24231;52.514;13.438;2023-03-01T07:10:47;102520.00;;;5.55;45.17
38452;BME280;24231;52.514;13.438;2023-03-01T07:13:14;102520.80;;;5.64;44.85
38452;BME280;24231;52.514;13.438;2023-03-01T07:15:41;102523.25;;;5.84;44.13
38452;BME280;24231;52.514;13.438;2023-03-01T07:18:09;102524.09;;;6.00;44.07
38452;BME280;24231;52.514;13.438;2023-03-01T07:20:36;102521.84;;;6.06;43.95
38452;BME280;24231;52.514;13.438;2023-03-01T07:23:05;102523.22;;;6.20;43.69
38452;BME280;24231;52.514;13.438;2023-03-01T07:25:33;102523.43;;;6.84;42.69
38452;BME280;24231;52.514;13.438;2023-03-01T07:28:00;102519.70;;;7.29;41.36
38452;BME280;24231;52.514;13.438;2023-03-01T07:30:27;102518.50;;;8.02;39.44
38452;BME280;24231;52.514;13.438;2023-03-01T07:32:55;102518.41;;;8.30;38.74
38452;BME280;24231;52.514;13.438;2023-03-01T07:35:22;102518.26;;;8.49;38.14
38452;BME280;24231;52.514;13.438;2023-03-01T07:37:49;102519.72;;;8.57;38.30
38452;BME280;24231;52.514;13.438;2023-03-01T07:40:16;102515.93;;;8.96;37.60
38452;BME280;24231;52.514;13.438;2023-03-01T07:42:43;102515.56;;;9.04;37.00
38452;BME280;24231;52.514;13.438;2023-03-01T07:45:11;102511.34;;;8.70;37.71
38452;BME280;24231;52.514;13.438;2023-03-01T07:47:38;102511.89;;;8.77;36.44
38452;BME280;24231;52.514;13.438;2023-03-01T07:50:06;102513.14;;;8.31;37.22
38452;BME280;24231;52.514;13.438;2023-03-01T07:52:33;102508.60;;;8.46;36.36
38452;BME280;24231;52.514;13.438;2023-03-01T07:55:00;102506.46;;;8.78;37.51
38452;BME280;24231;52.514;13.438;2023-03-01T07:57:27;102504.09;;;8.87;36.34
38452;BME280;24231;52.514;13.438;2023-03-01T07:59:54;102510.57;;;8.97;35.14
38452;BME280;24231;52.514;13.438;2023-03-01T08:02:21;102512.11;;;9.30;34.08
38452;BME280;24231;52.514;13.438;2023-03-01T08:04:49;102507.89;;;9.43;33.53
38452;BME280;24231;52.514;13.438;2023-03-01T08:07:16;102512.30;;;9.07;34.08
38452;BME280;24231;52.514;13.438;2023-03-01T08:09:43;102510.47;;;9.69;33.62
38452;BME280;24231;52.514;13.438;2023-03-01T08:12:10;102506.55;;;10.02;32.72
38452;BME280;24231;52.514;13.438;2023-03-01T08:14:37;102505.61;;;9.79;32.74
38452;BME280;24231;52.514;13.438;2023-03-01T08:17:04;102502.17;;;9.45;33.10
38452;BME280;24231;52.514;13.438;2023-03-01T08:19:32;102500.38;;;9.85;32.60
38452;BME280;24231;52.514;13.438;2023-03-01T08:21:59;102501.20;;;9.78;32.49
38452;BME280;24231;52.514;13.438;2023-03-01T08:24:26;102496.47;;;9.87;33.37
38452;BME280;24231;52.514;13.438;2023-03-01T08:26:54;102494.48;;;10.38;31.26
38452;BME280;24231;52.514;13.438;2023-03-01T08:29:22;102493.24;;;10.66;31.00
38452;BME280;24231;52.514;13.438;2023-03-01T08:31:49;102490.96;;;9.79;32.12
38452;BME280;24231;52.514;13.438;2023-03-01T08:34:17;102484.90;;;10.48;31.08
38452;BME280;24231;52.514;13.438;2023-03-01T08:36:46;102483.04;;;10.17;31.29
38452;BME280;24231;52.514;13.438;2023-03-01T08:39:17;102479.39;;;10.92;30.41
38452;BME280;24231;52.514;13.438;2023-03-01T08:41:44;102479.82;;;10.80;29.80
38452;BME280;24231;52.514;13.438;2023-03-01T08:44:13;102484.05;;;10.36;30.47
38452;BME280;24231;52.514;13.438;2023-03-01T08:46:41;102480.60;;;9.75;31.34
38452;BME280;24231;52.514;13.438;2023-03-01T08:49:13;102482.76;;;10.11;30.57
38452;BME280;24231;52.514;13.438;2023-03-01T08:51:41;102485.25;;;10.21;30.19
38452;BME280;24231;52.514;13.438;2023-03-01T08:54:12;102483.72;;;10.11;30.72
38452;BME280;24231;52.514;13.438;2023-03-01T08:56:39;102481.83;;;10.54;30.62
38452;BME280;24231;52.514;13.438;2023-03-01T08:59:07;102476.84;;;10.86;30.12
38452;BME280;24231;52.514;13.438;2023-03-01T09:01:34;102471.93;;;10.98;30.30
38452;BME280;24231;52.514;13.438;2023-03-01T09:04:01;102462.73;;;10.93;29.23
38452;BME280;24231;52.514;13.438;2023-03-01T09:06:30;102464.05;;;10.79;29.37
38452;BME280;24231;52.514;13.438;2023-03-01T09:08:57;102460.09;;;11.20;29.53
38452;BME280;24231;52.514;13.438;2023-03-01T09:11:25;102460.56;;;11.44;29.10
38452;BME280;24231;52.514;13.438;2023-03-01T09:13:53;102459.22;;;11.37;28.02
38452;BME280;24231;52.514;13.438;2023-03-01T09:16:22;102459.09;;;10.85;29.03
38452;BME280;24231;52.514;13.438;2023-03-01T09:18:49;102464.98;;;10.18;29.69
38452;BME280;24231;52.514;13.438;2023-03-01T09:21:17;102464.59;;;9.63;30.47
38452;BME280;24231;52.514;13.438;2023-03-01T09:23:50;102465.60;;;9.47;30.94
38452;BME280;24231;52.514;13.438;2023-03-01T09:26:20;102466.75;;;9.73;30.78
38452;BME280;24231;52.514;13.438;2023-03-01T09:28:48;102464.43;;;10.20;30.39
38452;BME280;24231;52.514;13.438;2023-03-01T09:31:17;102465.18;;;10.39;29.51
38452;BME280;24231;52.514;13.438;2023-03-01T09:33:56;102459.29;;;10.97;29.22
38452;BME280;24231;52.514;13.438;2023-03-01T09:36:24;102453.77;;;11.19;28.85
38452;BME280;24231;52.514;13.438;2023-03-01T09:38:52;102455.04;;;11.61;28.07
38452;BME280;24231;52.514;13.438;2023-03-01T09:41:33;102453.91;;;11.36;28.55
38452;BME280;24231;52.514;13.438;2023-03-01T09:44:07;102454.15;;;11.37;28.90
38452;BME280;24231;52.514;13.438;2023-03-01T09:46:42;102449.92;;;11.27;27.95
38452;BME280;24231;52.514;13.438;2023-03-01T09:49:12;102449.68;;;11.55;28.53
38452;BME280;24231;52.514;13.438;2023-03-01T09:51:42;102450.18;;;11.45;28.47
38452;BME280;24231;52.514;13.438;2023-03-01T09:54:11;102451.74;;;11.55;28.12
38452;BME280;24231;52.514;13.438;2023-03-01T09:56:41;102447.72;;;11.64;27.02
38452;BME280;24231;52.514;13.438;2023-03-01T09:59:18;102450.82;;;11.44;27.60
38452;BME280;24231;52.514;13.438;2023-03-01T10:01:51;102448.83;;;11.73;26.92
38452;BME280;24231;52.514;13.438;2023-03-01T10:04:27;102449.97;;;12.06;26.84
38452;BME280;24231;52.514;13.438;2023-03-01T10:07:07;102450.77;;;12.00;27.66
38452;BME280;24231;52.514;13.438;2023-03-01T10:09:41;102450.98;;;11.67;27.48
38452;BME280;24231;52.514;13.438;2023-03-01T10:12:11;102455.45;;;11.75;27.53
38452;BME280;24231;52.514;13.438;2023-03-01T10:14:47;102458.29;;;11.68;27.89
38452;BME280;24231;52.514;13.438;2023-03-01T10:17:24;102459.55;;;11.64;28.36
38452;BME280;24231;52.514;13.438;2023-03-01T10:19:51;102456.95;;;11.81;27.75
38452;BME280;24231;52.514;13.438;2023-03-01T10:22:21;102456.55;;;12.05;27.27
38452;BME280;24231;52.514;13.438;2023-03-01T10:24:51;102455.85;;;12.05;26.90
38452;BME280;24231;52.514;13.438;2023-03-01T10:27:23;102455.01;;;11.79;27.51
38452;BME280;24231;52.514;13.438;2023-03-01T10:29:56;102452.16;;;11.39;27.08
38452;BME280;24231;52.514;13.438;2023-03-01T10:32:26;102446.44;;;11.82;27.17
38452;BME280;24231;52.514;13.438;2023-03-01T10:34:54;102443.59;;;11.75;27.28
38452;BME280;24231;52.514;13.438;2023-03-01T10:37:21;102443.19;;;11.78;26.61
38452;BME280;24231;52.514;13.438;2023-03-01T10:40:07;102442.76;;;12.17;26.71
38452;BME280;24231;52.514;13.438;2023-03-01T10:42:36;102441.97;;;12.29;25.94
38452;BME280;24231;52.514;13.438;2023-03-01T10:45:30;102440.62;;;11.99;26.28
38452;BME280;24231;52.514;13.438;2023-03-01T10:48:12;102436.96;;;11.78;26.95
38452;BME280;24231;52.514;13.438;2023-03-01T10:50:41;102434.81;;;11.21;27.29
38452;BME280;24231;52.514;13.438;2023-03-01T10:53:22;102430.48;;;11.55;27.01
38452;BME280;24231;52.514;13.438;2023-03-01T10:55:58;102426.13;;;11.46;27.54
38452;BME280;24231;52.514;13.438;2023-03-01T10:58:27;102425.17;;;10.41;27.29
38452;BME280;24231;52.514;13.438;2023-03-01T11:00:56;102419.66;;;10.99;26.89
38452;BME280;24231;52.514;13.438;2023-03-01T11:03:25;102415.01;;;10.93;26.67
38452;BME280;24231;52.514;13.438;2023-03-01T11:05:56;102416.07;;;11.16;26.55
38452;BME280;24231;52.514;13.438;2023-03-01T11:08:33;102414.17;;;10.99;26.59
38452;BME280;24231;52.514;13.438;2023-03-01T11:11:26;102410.05;;;10.90;27.07
38452;BME280;24231;52.514;13.438;2023-03-01T11:13:58;102406.59;;;11.05;25.22
38452;BME280;24231;52.514;13.438;2023-03-01T11:16:32;102400.23;;;11.43;24.76
38452;BME280;24231;52.514;13.438;2023-03-01T11:19:04;102396.31;;;11.39;25.29
38452;BME280;24231;52.514;13.438;2023-03-01T11:21:45;102393.87;;;11.40;25.13
38452;BME280;24231;52.514;13.438;2023-03-01T11:24:15;102390.36;;;11.11;24.66
38452;BME280;24231;52.514;13.438;2023-03-01T11:26:47;102390.76;;;11.24;25.29
38452;BME280;24231;52.514;13.438;2023-03-01T11:29:26;102391.10;;;11.86;24.88
38452;BME280;24231;52.514;13.438;2023-03-01T11:31:59;102387.16;;;11.47;24.97
38452;BME280;24231;52.514;13.438;2023-03-01T11:34:38;102384.59;;;11.18;25.27
38452;BME280;24231;52.514;13.438;2023-03-01T11:37:16;102380.76;;;10.95;25.10
38452;BME280;24231;52.514;13.438;2023-03-01T11:39:54;102378.30;;;11.24;26.22
38452;BME280;24231;52.514;13.438;2023-03-01T11:42:43;102382.89;;;11.84;25.33
38452;BME280;24231;52.514;13.438;2023-03-01T11:45:14;102379.76;;;12.23;25.05
38452;BME280;24231;52.514;13.438;2023-03-01T11:47:55;102380.58;;;11.77;24.90
38452;BME280;24231;52.514;13.438;2023-03-01T11:50:29;102378.87;;;11.85;25.00
38452;BME280;24231;52.514;13.438;2023-03-01T11:53:09;102380.45;;;11.80;25.09
38452;BME280;24231;52.514;13.438;2023-03-01T11:55:55;102377.24;;;12.10;24.30
38452;BME280;24231;52.514;13.438;2023-03-01T11:58:41;102379.39;;;11.74;24.88
38452;BME280;24231;52.514;13.438;2023-03-01T12:01:22;102382.84;;;11.18;25.05
38452;BME280;24231;52.514;13.438;2023-03-01T12:04:10;102378.80;;;11.57;24.49
38452;BME280;24231;52.514;13.438;2023-03-01T12:06:52;102371.18;;;11.70;23.56
38452;BME280;24231;52.514;13.438;2023-03-01T12:09:36;102368.61;;;11.36;23.30
38452;BME280;24231;52.514;13.438;2023-03-01T12:12:21;102365.43;;;11.85;23.54
38452;BME280;24231;52.514;13.438;2023-03-01T12:14:59;102356.28;;;12.40;22.57
38452;BME280;24231;52.514;13.438;2023-03-01T12:17:40;102356.07;;;12.06;22.77
38452;BME280;24231;52.514;13.438;2023-03-01T12:20:28;102357.87;;;11.64;23.11
38452;BME280;24231;52.514;13.438;2023-03-01T12:23:13;102352.40;;;11.33;23.21
38452;BME280;24231;52.514;13.438;2023-03-01T12:25:46;102357.74;;;9.13;24.92
38452;BME280;24231;52.514;13.438;2023-03-01T12:28:55;102351.22;;;9.78;24.54
38452;BME280;24231;52.514;13.438;2023-03-01T12:32:42;102338.77;;;10.80;23.44
38452;BME280;24231;52.514;13.438;2023-03-01T12:35:27;102332.81;;;11.28;22.89
38452;BME280;24231;52.514;13.438;2023-03-01T12:38:11;102328.57;;;11.88;22.35
38452;BME280;24231;52.514;13.438;2023-03-01T12:40:55;102325.03;;;11.65;22.33
38452;BME280;24231;52.514;13.438;2023-03-01T12:43:38;102323.80;;;11.57;22.27
38452;BME280;24231;52.514;13.438;2023-03-01T12:46:19;102319.55;;;11.80;22.08
38452;BME280;24231;52.514;13.438;2023-03-01T12:48:59;102319.22;;;11.57;22.72
38452;BME280;24231;52.514;13.438;2023-03-01T12:51:32;102314.13;;;11.64;22.40
38452;BME280;24231;52.514;13.438;2023-03-01T12:54:06;102310.91;;;11.12;22.01
38452;BME280;24231;52.514;13.438;2023-03-01T12:56:36;102305.66;;;10.94;20.98
38452;BME280;24231;52.514;13.438;2023-03-01T12:59:11;102307.26;;;11.37;20.46
38452;BME280;24231;52.514;13.438;2023-03-01T13:01:45;102307.32;;;11.12;21.02
38452;BME280;24231;52.514;13.438;2023-03-01T13:04:29;102308.73;;;10.61;21.78
38452;BME280;24231;52.514;13.438;2023-03-01T13:07:11;102304.63;;;11.27;21.64